Pagrindinis puslapis
METAR-TAF:

METAR-TAF

Oro uostai :

Kittilä, Suomija

platuma: 67-42N, ilguma: 024-51E, Aukštis: 196 m

Dabartinis oras

Ataskaita buvo paskelbta 42 minutes, ne 19:50 UTC
Vėjas 7 kt iš Pietų/Pietryčių
Temperatūra 14°C
Drėgmė 94%
Slėgis 1007 hPa
Matomumas 10 km arba daugiau
Su prošvaistėmis ne aukštis 900 ft
Su prošvaistėmis ne aukštis 9500 ft

METAR: EFKT 171950Z AUTO 16007KT 9999 BKN009 BKN095 14/13 Q1007

Laikas: 23:32 (20:32 UTC)

Prognozė

Ataskaita buvo paskelbta 6 valandos ir 2 minutes, ne 14:30 UTC
Prognozė galioja nuo 17 metu 15 UTC su 17 metu 18 UTC
Vėjas 10 kt iš Pietų
Matomumas 10 km arba daugiau
Mažai debesys ne aukštis 400 ft
Apsiniaukę ne aukštis 2700 ft
Laikinai
nuo 17 metu 15 UTC su 17 metu 17 UTC
Matomumas: 6000 m
Mažai debesys ne aukštis 2000 ft, Liūtiniai kamuoliniai debesys.
lietus

TAF: EFKT 171430Z 1715/1718 18010KT 9999 FEW004 OVC027 TEMPO 1715/1717 6000 SHRA FEW020CB

Orai ataskaitas ir orų prognozės (METAR, TAF).

turimą stotys yra geltonos ir raudonos taškus žemėlapyje.

Perkelti pele per norėdami pamatyti stoties vardą.

Tada spustelėkite, norėdami matyti oro stebėjimo ir prognozės.

Norėdami pakeisti žemėlapį: spustelėkite ant žalios mygtukų su juodo kryžiaus žemyn,; žalią mygtuką su brūkšneliu, jei norite nutolinti; arba žalių rodyklių gretimoms žemėlapius.


METAR-TAF: